Time;durP1;ratioP1;P1;durP2;ratioP2;P2;SDS_P1;SDS_P2;PMS_P1;PMS_P2;Temp;Humidity;BMP_temperature;BMP_pressure;BME280_temperature;BME280_humidity;BME280_pressure;Samples;Min_cycle;Max_cycle;Signal;HPM_P1;HPM_P2
2022/01/09 00:00:55;;;;;;;2.87;2.03;;;0.10;99.90;;;;;;5010811;28;20173;-69
2022/01/09 00:03:21;;;;;;;2.37;2.17;;;0.10;99.90;;;;;;5013628;28;20438;-69
2022/01/09 00:05:46;;;;;;;3.10;2.90;;;0.10;99.90;;;;;;5014282;28;20547;-69
2022/01/09 00:08:12;;;;;;;1.63;1.57;;;0.20;99.90;;;;;;5014640;28;20186;-69
2022/01/09 00:10:37;;;;;;;2.33;1.73;;;0.20;99.90;;;;;;5014125;28;20642;-69
2022/01/09 00:13:03;;;;;;;2.90;2.30;;;0.30;99.90;;;;;;5014088;28;20227;-70
2022/01/09 00:15:29;;;;;;;1.53;1.43;;;0.20;99.90;;;;;;5013921;28;20283;-69
2022/01/09 00:17:54;;;;;;;3.27;2.43;;;0.20;99.90;;;;;;5012611;28;20173;-69
2022/01/09 00:20:20;;;;;;;3.10;2.80;;;0.20;99.90;;;;;;5013902;28;20784;-69
2022/01/09 00:22:48;;;;;;;2.97;2.50;;;0.10;99.90;;;;;;5014257;28;20188;-69
2022/01/09 00:25:16;;;;;;;3.23;2.87;;;0.10;99.90;;;;;;5000384;28;20191;-69
2022/01/09 00:27:42;;;;;;;3.10;2.90;;;0.10;99.90;;;;;;5009901;28;20412;-69
2022/01/09 00:30:10;;;;;;;1.50;1.40;;;0.10;99.90;;;;;;5013890;28;20779;-69
2022/01/09 00:32:36;;;;;;;4.43;2.70;;;0.10;99.90;;;;;;5032222;28;20203;-69
2022/01/09 00:35:03;;;;;;;2.33;2.23;;;0.10;99.90;;;;;;5017205;28;20423;-69
2022/01/09 00:37:28;;;;;;;5.47;2.30;;;0.10;99.90;;;;;;5012240;28;20222;-70
2022/01/09 00:39:54;;;;;;;2.43;1.97;;;0.10;99.90;;;;;;5013732;28;20438;-70
2022/01/09 00:42:20;;;;;;;3.10;3.00;;;0.10;99.90;;;;;;5013761;28;20693;-69
2022/01/09 00:44:46;;;;;;;1.80;1.57;;;0.10;99.90;;;;;;5013641;28;20233;-69
2022/01/09 00:47:11;;;;;;;1.53;1.40;;;0.00;99.90;;;;;;5014102;28;20494;-69
2022/01/09 00:49:37;;;;;;;2.53;2.17;;;0.00;99.90;;;;;;5013990;28;20184;-69
2022/01/09 00:52:03;;;;;;;2.53;1.67;;;0.00;99.90;;;;;;5013341;28;20305;-69
2022/01/09 00:54:29;;;;;;;2.20;2.00;;;0.10;99.90;;;;;;5013599;28;20207;-69
2022/01/09 00:56:54;;;;;;;2.10;1.47;;;0.00;99.90;;;;;;5013295;28;20482;-69
2022/01/09 00:59:20;;;;;;;1.70;1.60;;;0.00;99.90;;;;;;5012310;28;20188;-69
2022/01/09 01:01:45;;;;;;;2.17;1.97;;;0.00;99.90;;;;;;5013022;28;20204;-69
2022/01/09 01:04:11;;;;;;;1.33;1.23;;;0.00;99.90;;;;;;5013762;28;20187;-69
2022/01/09 01:06:36;;;;;;;1.70;1.60;;;0.00;99.90;;;;;;5013484;28;20657;-68
2022/01/09 01:09:02;;;;;;;4.30;3.40;;;0.00;99.90;;;;;;5013554;28;20176;-69
2022/01/09 01:11:28;;;;;;;2.83;1.40;;;-0.10;99.90;;;;;;5013324;28;20207;-69
2022/01/09 01:13:53;;;;;;;2.10;2.00;;;-0.10;99.90;;;;;;5012896;28;20399;-69
2022/01/09 01:16:19;;;;;;;2.00;1.27;;;-0.10;99.90;;;;;;5013099;28;20206;-69
2022/01/09 01:18:45;;;;;;;1.87;1.77;;;-0.10;99.90;;;;;;5013315;28;20172;-69
2022/01/09 01:21:11;;;;;;;3.13;1.80;;;-0.10;99.90;;;;;;5013128;28;20532;-69
2022/01/09 01:23:37;;;;;;;1.63;1.53;;;-0.10;99.90;;;;;;5013192;28;20516;-69
2022/01/09 01:26:03;;;;;;;2.27;2.07;;;-0.20;99.90;;;;;;5013050;28;20969;-69
2022/01/09 01:28:29;;;;;;;1.30;1.20;;;-0.20;99.90;;;;;;5013158;28;20180;-69
2022/01/09 01:30:56;;;;;;;2.70;1.80;;;-0.20;99.90;;;;;;5011529;28;20576;-69
2022/01/09 01:33:22;;;;;;;4.30;3.00;;;-0.20;99.90;;;;;;5012624;28;20427;-69
2022/01/09 01:35:48;;;;;;;6.00;2.83;;;-0.20;99.90;;;;;;5011448;28;20212;-69
2022/01/09 01:38:13;;;;;;;1.53;1.40;;;-0.20;99.90;;;;;;5012465;28;20420;-70
2022/01/09 01:40:40;;;;;;;2.70;1.93;;;-0.20;99.90;;;;;;5015308;28;20251;-69
2022/01/09 01:43:06;;;;;;;2.77;2.57;;;-0.20;99.90;;;;;;5015418;28;20195;-69
2022/01/09 01:45:31;;;;;;;1.97;1.73;;;-0.20;99.90;;;;;;5012753;28;20506;-70
2022/01/09 01:48:05;;;;;;;2.50;2.30;;;-0.20;99.90;;;;;;5012410;28;20850;-70
2022/01/09 01:50:35;;;;;;;1.97;1.73;;;-0.20;99.90;;;;;;5011531;28;20184;-70
2022/01/09 01:53:01;;;;;;;5.60;2.60;;;-0.20;99.90;;;;;;4992909;28;20432;-70
2022/01/09 01:55:28;;;;;;;1.37;1.27;;;-0.20;99.90;;;;;;5007089;28;20826;-70
2022/01/09 01:57:54;;;;;;;7.57;3.23;;;-0.20;99.90;;;;;;5013384;28;20179;-70
2022/01/09 02:00:20;;;;;;;2.27;2.07;;;-0.20;99.90;;;;;;5013351;28;20418;-69
2022/01/09 02:02:46;;;;;;;4.50;2.03;;;-0.20;99.90;;;;;;5012350;28;20215;-70
2022/01/09 02:05:11;;;;;;;4.23;2.47;;;-0.20;99.90;;;;;;5012362;28;20828;-69
2022/01/09 02:07:38;;;;;;;3.97;3.60;;;-0.20;99.90;;;;;;5012598;28;20176;-70
2022/01/09 02:10:07;;;;;;;8.10;3.07;;;-0.20;99.90;;;;;;5012566;28;20171;-70
2022/01/09 02:12:36;;;;;;;1.93;1.83;;;-0.10;99.90;;;;;;5012294;28;20854;-70
2022/01/09 02:15:01;;;;;;;1.60;1.50;;;-0.10;99.90;;;;;;5012323;28;20412;-70
2022/01/09 02:17:27;;;;;;;2.03;1.63;;;-0.10;99.90;;;;;;5010771;28;20914;-69
2022/01/09 02:19:54;;;;;;;3.43;1.47;;;-0.10;99.90;;;;;;5011906;28;20168;-70
2022/01/09 02:22:20;;;;;;;3.00;1.73;;;-0.10;99.90;;;;;;4998741;28;20259;-70
2022/01/09 02:24:46;;;;;;;2.80;1.80;;;-0.10;99.90;;;;;;4992163;28;20413;-70
2022/01/09 02:27:11;;;;;;;1.60;1.50;;;-0.10;99.90;;;;;;4991884;28;20752;-71
2022/01/09 02:29:37;;;;;;;2.30;1.97;;;-0.10;99.90;;;;;;4992338;28;20181;-70
2022/01/09 02:32:02;;;;;;;2.23;1.53;;;-0.10;99.90;;;;;;4992447;28;20280;-70
2022/01/09 02:34:28;;;;;;;6.33;2.27;;;-0.10;99.90;;;;;;4992276;28;20264;-71
2022/01/09 02:36:53;;;;;;;3.80;2.00;;;-0.10;99.90;;;;;;4992290;28;20197;-69
2022/01/09 02:39:19;;;;;;;2.10;2.00;;;-0.10;99.90;;;;;;4992384;28;20168;-70
2022/01/09 02:41:44;;;;;;;3.23;2.90;;;-0.10;99.90;;;;;;4992474;28;20196;-69
2022/01/09 02:44:10;;;;;;;2.03;1.87;;;-0.10;99.90;;;;;;4992492;28;20173;-70
2022/01/09 02:46:53;;;;;;;4.23;2.60;;;-0.10;99.90;;;;;;4992746;28;20671;-70
2022/01/09 02:49:18;;;;;;;5.57;2.50;;;-0.10;99.90;;;;;;4993185;28;20161;-69
2022/01/09 02:51:46;;;;;;;2.90;2.00;;;-0.10;99.90;;;;;;4992607;28;20443;-70
2022/01/09 02:56:56;;;;;;;3.87;2.60;;;-0.10;99.90;;;;;;4992350;28;20455;-70
2022/01/09 02:59:22;;;;;;;1.43;1.33;;;-0.10;99.90;;;;;;4992307;28;20781;-71
2022/01/09 03:01:47;;;;;;;2.50;2.30;;;-0.10;99.90;;;;;;4992080;28;20204;-70
2022/01/09 03:04:13;;;;;;;3.10;2.80;;;0.00;99.90;;;;;;4992182;28;20519;-71
2022/01/09 03:06:38;;;;;;;4.50;3.10;;;-0.10;99.90;;;;;;5009013;28;20263;-70
2022/01/09 03:09:05;;;;;;;6.33;2.50;;;-0.10;99.90;;;;;;5011894;28;20169;-70
2022/01/09 03:11:31;;;;;;;3.93;2.37;;;-0.10;99.90;;;;;;5011498;28;20496;-70
2022/01/09 03:13:57;;;;;;;1.90;1.80;;;-0.10;99.90;;;;;;5010073;28;20500;-69
2022/01/09 03:16:23;;;;;;;4.97;2.90;;;-0.10;99.90;;;;;;5011464;28;20958;-69
2022/01/09 03:18:48;;;;;;;2.13;2.03;;;0.00;99.90;;;;;;5011699;28;20227;-69
2022/01/09 03:21:13;;;;;;;2.20;1.90;;;-0.10;99.90;;;;;;5011387;28;20580;-69
2022/01/09 03:23:39;;;;;;;1.70;1.60;;;-0.10;99.90;;;;;;5011779;28;20164;-70
2022/01/09 03:26:08;;;;;;;2.23;2.13;;;-0.10;99.90;;;;;;5011870;28;20176;-69
2022/01/09 03:28:34;;;;;;;2.17;2.07;;;-0.10;99.90;;;;;;5011274;28;20176;-70
2022/01/09 03:31:00;;;;;;;4.93;1.50;;;-0.10;99.90;;;;;;5019233;28;20465;-70
2022/01/09 03:33:25;;;;;;;3.90;2.80;;;-0.10;99.90;;;;;;5018671;28;20443;-70
2022/01/09 03:35:51;;;;;;;3.07;1.60;;;-0.10;99.90;;;;;;5015325;28;20192;-69
2022/01/09 03:38:16;;;;;;;3.27;1.70;;;-0.10;99.90;;;;;;5012874;28;20195;-69
2022/01/09 03:40:42;;;;;;;1.47;1.37;;;-0.10;99.90;;;;;;5015006;28;20278;-70
2022/01/09 03:43:07;;;;;;;1.77;1.67;;;-0.10;99.90;;;;;;5014663;28;20192;-70
2022/01/09 03:45:33;;;;;;;1.87;1.53;;;-0.10;99.90;;;;;;5014904;28;20165;-69
2022/01/09 03:47:58;;;;;;;1.80;1.27;;;-0.10;99.90;;;;;;5014812;28;20668;-69
2022/01/09 03:50:24;;;;;;;1.43;1.33;;;-0.10;99.90;;;;;;5014863;28;20177;-70
2022/01/09 03:52:50;;;;;;;3.23;1.77;;;-0.10;99.90;;;;;;5014633;28;20210;-69
2022/01/09 03:55:19;;;;;;;1.77;1.67;;;-0.10;99.90;;;;;;5014577;28;20466;-69
2022/01/09 03:57:44;;;;;;;2.03;1.93;;;-0.10;99.90;;;;;;5014408;28;20438;-70
2022/01/09 04:00:14;;;;;;;5.03;2.17;;;-0.10;99.90;;;;;;5014634;28;20410;-70
2022/01/09 04:02:41;;;;;;;2.23;1.43;;;-0.10;99.90;;;;;;5014547;28;20275;-69
2022/01/09 04:05:08;;;;;;;4.40;3.53;;;-0.10;99.90;;;;;;5014648;28;20458;-70
2022/01/09 04:07:34;;;;;;;2.00;1.53;;;-0.10;99.90;;;;;;5014617;28;20418;-70
2022/01/09 04:09:59;;;;;;;3.37;1.67;;;-0.10;99.90;;;;;;5014482;28;20813;-70
2022/01/09 04:12:36;;;;;;;2.40;2.30;;;-0.10;99.90;;;;;;5014184;28;20204;-70
2022/01/09 04:15:06;;;;;;;4.33;4.00;;;-0.10;99.90;;;;;;5014164;28;20190;-69
2022/01/09 04:17:54;;;;;;;3.13;1.53;;;-0.10;99.90;;;;;;5014429;28;20879;-70
2022/01/09 04:20:20;;;;;;;1.90;1.70;;;-0.10;99.90;;;;;;5013720;28;20869;-70
2022/01/09 04:22:45;;;;;;;2.20;2.03;;;-0.10;99.90;;;;;;5014004;28;20453;-70
2022/01/09 04:25:11;;;;;;;3.80;2.13;;;-0.20;99.90;;;;;;5014030;28;20502;-70
2022/01/09 04:27:36;;;;;;;2.10;1.90;;;-0.10;99.90;;;;;;5014332;28;20168;-70
2022/01/09 04:30:04;;;;;;;4.00;2.00;;;-0.10;99.90;;;;;;5014145;28;20247;-70
2022/01/09 04:32:29;;;;;;;2.63;2.43;;;-0.10;99.90;;;;;;5014132;28;20189;-70
2022/01/09 04:34:55;;;;;;;3.63;2.20;;;-0.10;99.90;;;;;;5013782;28;20402;-70
2022/01/09 04:37:20;;;;;;;1.47;1.17;;;-0.20;99.90;;;;;;5013999;28;20176;-70
2022/01/09 04:39:48;;;;;;;2.67;2.50;;;-0.10;99.90;;;;;;5013984;28;20247;-70
2022/01/09 04:42:14;;;;;;;1.97;1.87;;;-0.10;99.90;;;;;;5013686;28;20184;-70
2022/01/09 04:44:39;;;;;;;8.33;3.20;;;-0.10;99.90;;;;;;5013905;28;20963;-70
2022/01/09 04:47:10;;;;;;;2.77;2.30;;;-0.10;99.90;;;;;;5013969;28;20195;-70
2022/01/09 04:49:39;;;;;;;1.57;1.43;;;-0.10;99.90;;;;;;5013155;28;20172;-70
2022/01/09 04:52:07;;;;;;;1.60;1.50;;;-0.10;99.90;;;;;;5014182;28;20796;-70
2022/01/09 04:54:33;;;;;;;2.87;2.37;;;-0.10;99.90;;;;;;5013602;28;20418;-70
2022/01/09 04:57:01;;;;;;;1.30;1.20;;;-0.10;99.90;;;;;;5013743;28;20956;-70
2022/01/09 04:59:27;;;;;;;1.97;1.70;;;0.00;99.90;;;;;;5013529;28;20164;-70
2022/01/09 05:01:52;;;;;;;1.20;1.10;;;-0.10;99.90;;;;;;5013316;28;20473;-70
2022/01/09 05:04:18;;;;;;;2.80;2.07;;;-0.10;99.90;;;;;;5013386;28;20176;-70
2022/01/09 05:06:43;;;;;;;2.17;1.90;;;-0.10;99.90;;;;;;5011537;28;20198;-70
2022/01/09 05:09:10;;;;;;;1.20;1.10;;;0.00;99.90;;;;;;5011657;28;20172;-70
2022/01/09 05:11:36;;;;;;;3.43;1.50;;;0.00;99.90;;;;;;5012759;28;20242;-70
2022/01/09 05:14:01;;;;;;;2.40;2.20;;;0.00;99.90;;;;;;5013060;28;20439;-70
2022/01/09 05:16:27;;;;;;;3.60;1.27;;;0.00;99.90;;;;;;5012900;28;21058;-70
2022/01/09 05:18:57;;;;;;;3.03;2.20;;;0.00;99.90;;;;;;5012965;28;20179;-70
2022/01/09 05:21:23;;;;;;;1.63;1.53;;;0.00;99.90;;;;;;5012818;28;20278;-70
2022/01/09 05:23:49;;;;;;;3.43;1.90;;;0.00;99.90;;;;;;5009753;28;20449;-70
2022/01/09 05:26:14;;;;;;;2.23;1.40;;;0.00;99.90;;;;;;5012539;28;20180;-70
2022/01/09 05:28:40;;;;;;;1.83;1.70;;;0.10;99.90;;;;;;5013110;28;20430;-70
2022/01/09 05:31:06;;;;;;;1.53;1.43;;;0.00;99.90;;;;;;5013178;28;20192;-71
2022/01/09 05:33:32;;;;;;;1.83;1.73;;;0.00;99.90;;;;;;5013152;28;20192;-70
2022/01/09 05:35:57;;;;;;;2.53;2.07;;;0.00;99.90;;;;;;5012854;28;20200;-70
2022/01/09 05:38:24;;;;;;;1.10;1.00;;;0.00;99.90;;;;;;5013082;28;20514;-70
2022/01/09 05:40:49;;;;;;;2.47;1.37;;;0.00;99.90;;;;;;5012915;28;20767;-70
2022/01/09 05:43:15;;;;;;;2.30;1.10;;;0.00;99.90;;;;;;5052002;23;20569;-70
2022/01/09 05:45:41;;;;;;;1.80;1.70;;;0.10;99.90;;;;;;5048516;28;20180;-71
2022/01/09 05:48:06;;;;;;;1.40;1.20;;;0.00;99.90;;;;;;5033820;28;20202;-71
2022/01/09 05:50:33;;;;;;;3.63;2.40;;;0.00;99.90;;;;;;5033258;28;20164;-72
2022/01/09 05:52:58;;;;;;;1.60;1.50;;;0.10;99.90;;;;;;5033359;28;20191;-69
2022/01/09 05:55:24;;;;;;;1.73;1.63;;;0.10;99.90;;;;;;5032989;28;20468;-70
2022/01/09 05:57:49;;;;;;;1.87;1.60;;;0.10;99.90;;;;;;5033039;28;20167;-71
2022/01/09 06:00:15;;;;;;;2.70;1.77;;;0.10;99.90;;;;;;5033003;28;20164;-70
2022/01/09 06:02:41;;;;;;;3.23;1.80;;;0.10;99.90;;;;;;5033920;28;20191;-71
2022/01/09 06:05:07;;;;;;;3.30;2.30;;;0.10;99.90;;;;;;5034286;28;20754;-70
2022/01/09 06:07:33;;;;;;;2.60;1.67;;;0.10;99.90;;;;;;5034217;28;20413;-71
2022/01/09 06:09:59;;;;;;;1.50;1.40;;;0.10;99.90;;;;;;5033371;28;20402;-72
2022/01/09 06:12:24;;;;;;;1.20;1.10;;;0.20;99.90;;;;;;5034428;28;20183;-71
2022/01/09 06:14:51;;;;;;;4.07;2.20;;;0.20;99.90;;;;;;5034058;28;20206;-71
2022/01/09 06:17:17;;;;;;;3.00;2.60;;;0.20;99.90;;;;;;5034198;28;20739;-71
2022/01/09 06:19:42;;;;;;;1.43;1.23;;;0.20;99.90;;;;;;5034202;28;20414;-69
2022/01/09 06:22:08;;;;;;;4.23;2.70;;;0.20;99.90;;;;;;5032445;28;20206;-70
2022/01/09 06:24:33;;;;;;;2.53;2.40;;;0.20;99.90;;;;;;5031098;28;20167;-70
2022/01/09 06:26:59;;;;;;;1.40;1.23;;;0.20;99.90;;;;;;5032574;28;20179;-71
2022/01/09 06:29:24;;;;;;;1.10;1.00;;;0.30;99.90;;;;;;5032492;28;20186;-72
2022/01/09 06:31:50;;;;;;;2.20;1.60;;;0.30;99.90;;;;;;5032278;28;20196;-70
2022/01/09 06:34:15;;;;;;;2.67;2.47;;;0.30;99.90;;;;;;5032366;28;20258;-73
2022/01/09 06:36:41;;;;;;;2.50;1.67;;;0.30;99.90;;;;;;5032299;28;20532;-70
2022/01/09 06:39:06;;;;;;;3.50;3.10;;;0.30;99.90;;;;;;5032418;28;20171;-70
2022/01/09 06:41:32;;;;;;;2.67;2.30;;;0.40;99.90;;;;;;5032230;28;20199;-70
2022/01/09 06:43:58;;;;;;;2.13;1.93;;;0.40;99.90;;;;;;5032253;28;20705;-71
2022/01/09 06:46:25;;;;;;;5.07;1.97;;;0.40;99.90;;;;;;5032305;28;20429;-70
2022/01/09 06:48:51;;;;;;;1.73;1.63;;;0.40;99.90;;;;;;5032238;28;20534;-71
2022/01/09 06:51:17;;;;;;;2.47;2.37;;;0.50;99.90;;;;;;5032389;28;20756;-71
2022/01/09 06:53:43;;;;;;;1.27;1.17;;;0.50;99.90;;;;;;5030811;28;20414;-71
2022/01/09 06:56:08;;;;;;;2.13;1.50;;;0.50;99.90;;;;;;5032115;28;20442;-71
2022/01/09 06:58:36;;;;;;;1.53;1.43;;;0.50;99.90;;;;;;5033181;28;20167;-71
2022/01/09 07:01:03;;;;;;;1.70;1.60;;;0.50;99.90;;;;;;5036271;28;20172;-71
2022/01/09 07:03:29;;;;;;;3.57;2.03;;;0.50;99.90;;;;;;5032238;28;20476;-70
2022/01/09 07:05:54;;;;;;;2.03;1.80;;;0.50;99.90;;;;;;5032103;28;20402;-71
2022/01/09 07:08:20;;;;;;;1.00;1.00;;;0.60;99.90;;;;;;5032543;28;20187;-71
2022/01/09 07:10:45;;;;;;;3.07;1.33;;;0.60;99.90;;;;;;5032529;28;20227;-71
2022/01/09 07:13:11;;;;;;;1.50;1.40;;;0.60;99.90;;;;;;5034547;28;20662;-72
2022/01/09 07:15:36;;;;;;;1.83;1.73;;;0.60;99.90;;;;;;5035780;28;20218;-72
2022/01/09 07:18:02;;;;;;;1.93;1.50;;;0.60;99.90;;;;;;5036191;28;20182;-70
2022/01/09 07:20:27;;;;;;;3.03;1.67;;;0.60;99.90;;;;;;5035837;28;20222;-71
2022/01/09 07:22:53;;;;;;;2.33;2.13;;;0.60;99.90;;;;;;5035349;28;20685;-71
2022/01/09 07:25:18;;;;;;;2.30;1.80;;;0.60;99.90;;;;;;5035542;28;20250;-71
2022/01/09 07:27:44;;;;;;;1.60;1.50;;;0.60;99.90;;;;;;5035450;28;20160;-71
2022/01/09 07:30:09;;;;;;;1.60;1.50;;;0.60;99.90;;;;;;5035553;28;20171;-71
2022/01/09 07:32:36;;;;;;;2.20;2.10;;;0.60;99.90;;;;;;5033955;28;20325;-70
2022/01/09 07:35:03;;;;;;;3.53;1.60;;;0.70;99.90;;;;;;5035245;28;20187;-70
2022/01/09 07:37:30;;;;;;;4.03;3.27;;;0.70;99.90;;;;;;5026312;28;20422;-70
2022/01/09 07:40:00;;;;;;;3.10;2.50;;;0.70;99.90;;;;;;5015640;28;20502;-70
2022/01/09 07:42:26;;;;;;;3.13;2.30;;;0.80;99.90;;;;;;5020369;28;20748;-71
2022/01/09 07:44:51;;;;;;;3.70;1.97;;;0.80;99.90;;;;;;5034380;28;20418;-71
2022/01/09 07:47:17;;;;;;;2.23;2.03;;;0.80;99.90;;;;;;5038132;28;20760;-71
2022/01/09 07:49:42;;;;;;;2.80;1.60;;;0.80;99.90;;;;;;5035227;28;20214;-70
2022/01/09 07:52:11;;;;;;;3.37;2.10;;;0.80;99.90;;;;;;5033299;28;20191;-73
2022/01/09 07:54:37;;;;;;;4.07;2.83;;;0.80;99.90;;;;;;5033120;28;20191;-71
2022/01/09 07:57:03;;;;;;;2.40;2.20;;;0.80;99.90;;;;;;5032761;28;20462;-72
2022/01/09 07:59:28;;;;;;;1.50;1.40;;;0.90;99.90;;;;;;5034928;28;20301;-70
2022/01/09 08:01:54;;;;;;;2.03;1.93;;;0.90;99.90;;;;;;5033553;28;20513;-72
2022/01/09 08:04:19;;;;;;;2.30;2.10;;;1.00;99.90;;;;;;5034631;28;20667;-71
2022/01/09 08:06:45;;;;;;;2.40;1.50;;;1.00;99.90;;;;;;5034906;28;20184;-70
2022/01/09 08:09:10;;;;;;;1.80;1.70;;;1.00;99.90;;;;;;5034856;28;20258;-71
2022/01/09 08:11:35;;;;;;;3.07;2.73;;;1.00;99.90;;;;;;5034500;28;20618;-71
2022/01/09 08:14:01;;;;;;;3.37;1.60;;;1.10;99.90;;;;;;5034903;28;20195;-70
2022/01/09 08:16:27;;;;;;;1.90;1.63;;;1.00;99.90;;;;;;5034346;28;20203;-71
2022/01/09 08:18:53;;;;;;;2.27;2.17;;;1.10;99.90;;;;;;5035090;28;20176;-71
2022/01/09 08:21:20;;;;;;;3.83;2.60;;;1.10;99.90;;;;;;5034657;28;20164;-71
2022/01/09 08:23:49;;;;;;;4.13;1.93;;;1.20;99.90;;;;;;5034755;28;20410;-71
2022/01/09 08:26:16;;;;;;;4.70;2.60;;;1.10;99.90;;;;;;5034834;28;20509;-71
2022/01/09 08:28:44;;;;;;;3.27;1.97;;;1.10;99.90;;;;;;5034886;28;20410;-71
2022/01/09 08:31:13;;;;;;;2.90;2.07;;;1.10;99.90;;;;;;5035205;28;20406;-71
2022/01/09 08:33:39;;;;;;;3.50;2.17;;;1.10;99.90;;;;;;5035817;28;20849;-72
2022/01/09 08:36:05;;;;;;;6.00;2.40;;;1.20;99.90;;;;;;5036157;28;20488;-72
2022/01/09 08:38:30;;;;;;;6.30;1.80;;;1.20;99.90;;;;;;5035662;28;20211;-72
2022/01/09 08:40:56;;;;;;;2.73;1.77;;;1.30;99.90;;;;;;5033105;28;20449;-70
2022/01/09 08:43:22;;;;;;;3.23;2.00;;;1.30;99.90;;;;;;5033557;28;20207;-71
2022/01/09 08:45:48;;;;;;;2.03;1.77;;;1.30;99.90;;;;;;5034155;28;20250;-71
2022/01/09 08:48:14;;;;;;;3.37;3.03;;;1.40;99.90;;;;;;5034596;28;20436;-71
2022/01/09 08:50:39;;;;;;;3.40;2.57;;;1.40;99.90;;;;;;5035883;28;20190;-71
2022/01/09 08:53:05;;;;;;;2.13;1.97;;;1.50;99.90;;;;;;5033491;28;20434;-71
2022/01/09 08:55:30;;;;;;;2.03;1.30;;;1.50;99.90;;;;;;5033829;28;20213;-71
2022/01/09 08:57:59;;;;;;;2.20;2.00;;;1.60;99.90;;;;;;5033483;28;20171;-71
2022/01/09 09:00:25;;;;;;;2.10;1.90;;;1.50;99.90;;;;;;5033705;28;20164;-73
2022/01/09 09:02:51;;;;;;;3.33;1.83;;;1.60;99.90;;;;;;5033532;28;20784;-70
2022/01/09 09:05:17;;;;;;;3.73;2.03;;;1.70;99.90;;;;;;5033565;28;20482;-71
2022/01/09 09:07:42;;;;;;;3.00;2.40;;;1.70;99.90;;;;;;5033604;28;20194;-70
2022/01/09 09:10:09;;;;;;;4.60;3.93;;;1.70;99.90;;;;;;5033624;28;20214;-71
2022/01/09 09:12:35;;;;;;;4.60;4.20;;;1.70;99.90;;;;;;5034006;28;20223;-70
2022/01/09 09:15:03;;;;;;;3.40;3.10;;;1.70;99.90;;;;;;5033892;28;20436;-72
2022/01/09 09:17:29;;;;;;;4.30;3.10;;;1.80;99.90;;;;;;5033905;28;20558;-72
2022/01/09 09:19:54;;;;;;;1.77;1.53;;;1.80;99.90;;;;;;5034010;28;20457;-71
2022/01/09 09:22:20;;;;;;;2.10;1.90;;;1.90;99.90;;;;;;5033525;28;20241;-71
2022/01/09 09:24:46;;;;;;;3.43;1.40;;;1.90;99.90;;;;;;5032991;28;20170;-70
2022/01/09 09:27:11;;;;;;;1.73;1.40;;;1.90;99.90;;;;;;5033071;28;20168;-72
2022/01/09 09:29:37;;;;;;;2.10;1.87;;;1.90;99.90;;;;;;5033160;28;20179;-70
2022/01/09 09:32:03;;;;;;;1.30;1.20;;;1.90;99.90;;;;;;5033196;28;20195;-70
2022/01/09 09:34:28;;;;;;;4.43;2.47;;;1.90;99.90;;;;;;5032702;28;20194;-71
2022/01/09 09:36:54;;;;;;;4.10;1.40;;;1.90;99.90;;;;;;5033624;28;20237;-71
2022/01/09 09:39:19;;;;;;;2.50;2.00;;;1.90;99.90;;;;;;5033311;28;20417;-70
2022/01/09 09:41:47;;;;;;;5.20;2.27;;;1.90;99.90;;;;;;5032726;28;20208;-70
2022/01/09 09:44:13;;;;;;;3.60;2.00;;;2.00;99.90;;;;;;5033270;28;20263;-69
2022/01/09 09:46:39;;;;;;;2.23;1.60;;;2.10;99.90;;;;;;5033017;28;20998;-71
2022/01/09 09:49:05;;;;;;;3.13;2.00;;;2.10;99.90;;;;;;5032896;28;20410;-71
2022/01/09 09:51:31;;;;;;;2.57;2.37;;;2.20;99.90;;;;;;5032715;28;20434;-72
2022/01/09 09:53:57;;;;;;;4.07;2.80;;;2.20;99.90;;;;;;5032948;28;20485;-70
2022/01/09 09:56:23;;;;;;;3.00;2.10;;;2.20;99.90;;;;;;5032755;28;20190;-71
2022/01/09 09:58:52;;;;;;;6.43;2.37;;;2.20;99.90;;;;;;5032701;28;20839;-71
2022/01/09 10:01:23;;;;;;;2.50;2.00;;;2.20;99.90;;;;;;5031260;28;20233;-70
2022/01/09 10:04:00;;;;;;;7.70;1.57;;;2.40;99.90;;;;;;5032456;28;20415;-75
2022/01/09 10:06:38;;;;;;;3.63;2.37;;;2.40;99.90;;;;;;5029570;28;20418;-71
2022/01/09 10:09:09;;;;;;;2.00;1.70;;;2.30;99.90;;;;;;5022256;28;20908;-72
2022/01/09 10:11:47;;;;;;;2.40;2.07;;;2.30;99.90;;;;;;5032763;28;20966;-71
2022/01/09 10:14:18;;;;;;;2.10;1.90;;;2.40;99.90;;;;;;5032733;28;20870;-71
2022/01/09 10:17:09;;;;;;;5.60;1.90;;;2.50;99.90;;;;;;5032394;28;20460;-72
2022/01/09 10:19:51;;;;;;;1.80;1.70;;;2.50;99.90;;;;;;5026986;28;20449;-72
2022/01/09 10:22:33;;;;;;;1.43;1.30;;;2.60;99.90;;;;;;5032144;28;20522;-72
2022/01/09 10:25:17;;;;;;;1.30;1.20;;;2.60;99.90;;;;;;5032161;28;20402;-73
2022/01/09 10:27:44;;;;;;;3.63;2.30;;;2.70;99.90;;;;;;5032355;28;20410;-70
2022/01/09 10:30:11;;;;;;;2.37;1.73;;;2.70;99.90;;;;;;5032233;28;20430;-71
2022/01/09 10:32:37;;;;;;;3.10;2.30;;;2.80;99.90;;;;;;5032129;28;20438;-73
2022/01/09 10:35:16;;;;;;;2.33;1.90;;;2.80;99.90;;;;;;5033234;28;20426;-74
2022/01/09 10:37:44;;;;;;;3.23;2.47;;;2.90;99.90;;;;;;5034338;28;20422;-71
2022/01/09 10:40:18;;;;;;;2.33;1.90;;;3.00;99.90;;;;;;5032571;28;20552;-72
2022/01/09 10:42:44;;;;;;;1.77;1.50;;;3.00;99.90;;;;;;5032188;28;21131;-71
2022/01/09 10:45:24;;;;;;;3.90;2.10;;;3.10;99.90;;;;;;5032232;28;20429;-71
2022/01/09 10:47:55;;;;;;;1.43;1.03;;;3.10;99.90;;;;;;5031199;28;20225;-71
2022/01/09 10:50:34;;;;;;;3.10;2.30;;;3.10;99.90;;;;;;5031931;28;20416;-71
2022/01/09 10:53:19;;;;;;;3.70;2.00;;;3.20;99.90;;;;;;5032202;28;20986;-71
2022/01/09 10:56:13;;;;;;;3.00;2.00;;;3.30;99.90;;;;;;5018752;28;20454;-71
2022/01/09 10:58:44;;;;;;;1.70;1.60;;;3.20;99.90;;;;;;5029797;28;20414;-72
2022/01/09 11:01:21;;;;;;;3.20;1.87;;;3.20;99.90;;;;;;5041168;28;20942;-70
2022/01/09 11:04:00;;;;;;;2.23;2.03;;;3.20;99.90;;;;;;5045630;28;20972;-70
2022/01/09 11:06:31;;;;;;;3.40;2.13;;;3.20;99.90;;;;;;5034957;28;20406;-71
2022/01/09 11:08:57;;;;;;;1.70;1.60;;;3.20;99.90;;;;;;5031460;28;20485;-71
2022/01/09 11:11:36;;;;;;;5.00;2.30;;;3.20;99.90;;;;;;5031905;28;20426;-70
2022/01/09 11:14:05;;;;;;;2.23;1.73;;;3.20;99.90;;;;;;5032107;28;20171;-70
2022/01/09 11:16:42;;;;;;;2.30;1.83;;;3.20;99.90;;;;;;5032101;28;20454;-69
2022/01/09 11:19:16;;;;;;;1.97;1.87;;;3.20;99.90;;;;;;5032016;28;20471;-70
2022/01/09 11:21:44;;;;;;;2.00;1.80;;;3.30;99.90;;;;;;5030470;28;20446;-70
2022/01/09 11:24:43;;;;;;;2.60;2.30;;;3.40;99.90;;;;;;5032616;28;20414;-71
2022/01/09 11:27:16;;;;;;;3.40;1.50;;;3.40;99.90;;;;;;5032991;28;20411;-70
2022/01/09 11:29:54;;;;;;;4.20;3.10;;;3.30;99.90;;;;;;5033115;28;20468;-71
2022/01/09 11:32:49;;;;;;;1.90;1.53;;;3.40;99.90;;;;;;5033171;28;20499;-71
2022/01/09 11:35:28;;;;;;;4.67;3.03;;;3.50;99.90;;;;;;5033159;28;20425;-72
2022/01/09 11:38:18;;;;;;;3.57;2.67;;;3.60;99.90;;;;;;5036868;28;20398;-71
2022/01/09 11:40:43;;;;;;;4.00;2.20;;;3.60;99.90;;;;;;5041188;28;20413;-71
2022/01/09 11:43:14;;;;;;;1.87;1.37;;;3.60;99.90;;;;;;5047870;23;21169;-69
2022/01/09 11:45:47;;;;;;;3.40;2.77;;;3.60;99.90;;;;;;5030911;28;20658;-70
2022/01/09 11:48:15;;;;;;;2.63;1.47;;;3.60;99.90;;;;;;5031712;28;20395;-69
2022/01/09 11:51:05;;;;;;;7.63;2.00;;;3.70;99.90;;;;;;5032131;28;20430;-69
2022/01/09 11:54:08;;;;;;;2.47;2.00;;;3.70;99.90;;;;;;5029084;28;20425;-70
2022/01/09 11:56:52;;;;;;;2.63;2.30;;;3.50;99.90;;;;;;5035937;28;20461;-71
2022/01/09 11:59:40;;;;;;;2.40;2.30;;;3.60;99.90;;;;;;5035946;28;20445;-73
2022/01/09 12:02:12;;;;;;;2.57;2.37;;;3.60;99.90;;;;;;5035555;28;20485;-74
2022/01/09 12:04:40;;;;;;;3.17;1.90;;;3.70;99.90;;;;;;5034450;28;20446;-71
2022/01/09 12:07:31;;;;;;;4.37;2.33;;;3.80;99.90;;;;;;5035533;28;20445;-71
2022/01/09 12:09:58;;;;;;;4.90;2.30;;;3.80;99.90;;;;;;5015853;28;20429;-70
2022/01/09 12:12:32;;;;;;;2.37;2.10;;;3.80;99.90;;;;;;5034631;28;20434;-72
2022/01/09 12:15:03;;;;;;;1.50;1.40;;;3.80;99.90;;;;;;5034475;28;20444;-70
2022/01/09 12:17:38;;;;;;;4.70;1.80;;;3.90;99.90;;;;;;5033052;28;20461;-70
2022/01/09 12:20:12;;;;;;;2.93;1.83;;;3.90;99.90;;;;;;5032764;28;20923;-69
2022/01/09 12:22:43;;;;;;;4.37;2.10;;;4.10;99.90;;;;;;5034180;28;20491;-69
2022/01/09 12:25:21;;;;;;;3.00;2.07;;;4.10;99.90;;;;;;5032762;28;20501;-70
2022/01/09 12:27:51;;;;;;;2.67;2.30;;;4.10;99.90;;;;;;5034121;28;20453;-69
2022/01/09 12:30:50;;;;;;;2.30;1.93;;;4.00;99.90;;;;;;5034019;28;20410;-70
2022/01/09 12:33:20;;;;;;;5.03;2.80;;;4.10;99.90;;;;;;5032551;28;20568;-71
2022/01/09 12:35:54;;;;;;;3.83;1.90;;;4.00;99.90;;;;;;5033756;28;20477;-70
2022/01/09 12:38:23;;;;;;;3.30;2.57;;;4.20;99.90;;;;;;5034844;28;20412;-70
2022/01/09 12:41:03;;;;;;;2.87;2.20;;;4.10;99.90;;;;;;5038186;28;20415;-70
2022/01/09 12:43:30;;;;;;;2.93;2.70;;;4.20;99.90;;;;;;5036839;28;20583;-70
2022/01/09 12:45:56;;;;;;;1.90;1.70;;;4.20;99.90;;;;;;5037791;28;20403;-70
2022/01/09 12:48:25;;;;;;;2.03;1.70;;;4.10;99.90;;;;;;5038639;28;20418;-70
2022/01/09 12:50:51;;;;;;;3.57;1.80;;;4.10;99.90;;;;;;5038714;28;20460;-70
2022/01/09 12:53:29;;;;;;;3.90;1.73;;;4.20;99.90;;;;;;5037300;28;20448;-70
2022/01/09 12:56:03;;;;;;;2.97;1.60;;;4.20;99.90;;;;;;5033894;28;20457;-70
2022/01/09 12:58:33;;;;;;;2.40;1.80;;;4.30;99.90;;;;;;5033419;28;20402;-70
2022/01/09 13:01:01;;;;;;;1.60;1.50;;;4.40;99.90;;;;;;5033206;28;20967;-70